createdAt,value
2022-07-30T00:00:25.168Z,0.00
2022-07-30T00:01:23.745Z,0.00
2022-07-30T00:02:25.613Z,0.00
2022-07-30T00:03:24.816Z,0.00
2022-07-30T00:04:25.092Z,0.00
2022-07-30T00:05:24.417Z,0.00
2022-07-30T00:06:23.496Z,0.00
2022-07-30T00:07:24.990Z,0.00
2022-07-30T00:08:25.345Z,0.00
2022-07-30T00:09:26.047Z,0.00
2022-07-30T00:10:23.995Z,0.00
2022-07-30T00:11:27.493Z,0.00
2022-07-30T00:12:23.876Z,0.00
2022-07-30T00:13:24.921Z,0.00
2022-07-30T00:14:23.853Z,0.00
2022-07-30T00:15:23.764Z,0.00
2022-07-30T00:16:24.701Z,0.00
2022-07-30T00:17:24.021Z,0.00
2022-07-30T00:18:23.427Z,0.00
2022-07-30T00:19:23.588Z,0.00
2022-07-30T00:20:27.910Z,0.00
2022-07-30T00:21:34.618Z,0.00
2022-07-30T00:22:24.404Z,0.00
2022-07-30T00:23:23.441Z,0.00
2022-07-30T00:24:23.471Z,0.00
2022-07-30T00:25:23.666Z,0.00
2022-07-30T00:26:23.520Z,0.00
2022-07-30T00:27:23.305Z,0.00
2022-07-30T00:28:23.236Z,0.00
2022-07-30T00:29:23.711Z,0.00
2022-07-30T00:30:24.328Z,0.00
2022-07-30T00:31:23.166Z,0.00
2022-07-30T00:32:23.206Z,0.00
2022-07-30T00:33:23.619Z,0.00
2022-07-30T00:34:23.254Z,0.00
2022-07-30T00:35:23.495Z,0.00
2022-07-30T00:36:24.104Z,0.00
2022-07-30T00:37:23.115Z,0.00
2022-07-30T00:38:23.596Z,0.00
2022-07-30T00:39:23.294Z,0.00
2022-07-30T00:40:23.114Z,0.00
2022-07-30T00:41:23.016Z,0.00
2022-07-30T00:42:23.001Z,0.00
2022-07-30T00:43:23.087Z,0.00
2022-07-30T00:44:23.436Z,0.00
2022-07-30T00:45:23.275Z,0.00
2022-07-30T00:46:22.950Z,0.00
2022-07-30T00:47:22.943Z,0.00
2022-07-30T00:48:22.896Z,0.00
2022-07-30T00:49:22.949Z,0.00
2022-07-30T00:50:22.895Z,0.00
2022-07-30T00:51:23.645Z,0.00
2022-07-30T00:52:23.209Z,0.00
2022-07-30T00:53:22.833Z,0.00
2022-07-30T00:54:22.813Z,0.00
2022-07-30T00:55:22.831Z,0.00
2022-07-30T00:56:22.796Z,0.00
2022-07-30T00:57:22.897Z,0.00
2022-07-30T00:58:23.121Z,0.00
2022-07-30T00:59:23.845Z,0.00
2022-07-30T01:00:23.959Z,0.00
2022-07-30T01:01:22.898Z,0.00
2022-07-30T01:02:22.852Z,0.00
2022-07-30T01:03:22.848Z,0.00
2022-07-30T01:04:22.749Z,0.00
2022-07-30T01:05:22.966Z,0.00
2022-07-30T01:06:22.878Z,0.00
2022-07-30T01:07:23.986Z,0.00
2022-07-30T01:08:22.729Z,0.00
2022-07-30T01:09:22.744Z,0.00
2022-07-30T01:10:22.706Z,0.00
2022-07-30T01:11:23.604Z,0.00
2022-07-30T01:12:22.829Z,0.00
2022-07-30T01:13:22.736Z,0.00
2022-07-30T01:14:22.645Z,0.00
2022-07-30T01:15:22.688Z,0.00
2022-07-30T01:16:23.944Z,0.00
2022-07-30T01:17:23.797Z,0.00
2022-07-30T01:18:23.659Z,0.00
2022-07-30T01:19:23.102Z,0.00
2022-07-30T01:20:22.659Z,0.00
2022-07-30T01:21:22.552Z,0.00
2022-07-30T01:22:22.513Z,0.00
2022-07-30T01:23:22.569Z,0.00
2022-07-30T01:24:22.697Z,0.00
2022-07-30T01:25:22.557Z,0.00
2022-07-30T01:26:22.555Z,0.00
2022-07-30T01:27:22.828Z,0.00
2022-07-30T01:28:22.491Z,0.00
2022-07-30T01:29:22.649Z,0.00
2022-07-30T01:30:22.628Z,0.00
2022-07-30T01:31:22.617Z,0.00
2022-07-30T01:32:22.613Z,0.00
2022-07-30T01:33:22.517Z,0.00
2022-07-30T01:34:22.534Z,0.00
2022-07-30T01:35:22.468Z,0.00
2022-07-30T01:36:22.454Z,0.00
2022-07-30T01:37:22.380Z,0.00
2022-07-30T01:38:22.402Z,0.00
2022-07-30T01:39:22.364Z,0.00
2022-07-30T01:40:22.343Z,0.00
2022-07-30T01:41:22.334Z,0.00
2022-07-30T01:42:22.421Z,0.00
2022-07-30T01:43:22.367Z,0.00
2022-07-30T01:44:23.735Z,0.00
2022-07-30T01:45:22.404Z,0.00
2022-07-30T01:46:22.440Z,0.00
2022-07-30T01:47:22.403Z,0.00
2022-07-30T01:48:22.393Z,0.00
2022-07-30T01:49:22.276Z,0.00
2022-07-30T01:50:22.194Z,0.00
2022-07-30T01:51:22.309Z,0.00
2022-07-30T01:52:22.238Z,0.00
2022-07-30T01:53:22.491Z,0.00
2022-07-30T01:54:22.211Z,0.00
2022-07-30T01:55:22.180Z,0.00
2022-07-30T01:56:24.777Z,0.00
2022-07-30T01:57:22.254Z,0.00
2022-07-30T01:58:22.138Z,0.00
2022-07-30T01:59:22.210Z,0.00
2022-07-30T02:00:22.963Z,0.00
2022-07-30T02:01:22.148Z,0.00
2022-07-30T02:02:22.102Z,0.00
2022-07-30T02:03:22.224Z,0.00
2022-07-30T02:04:22.069Z,0.00
2022-07-30T02:05:22.092Z,0.00
2022-07-30T02:06:22.586Z,0.00
2022-07-30T02:07:22.294Z,0.00
2022-07-30T02:08:22.004Z,0.00
2022-07-30T02:09:22.015Z,0.00
2022-07-30T02:10:22.041Z,0.00
2022-07-30T02:11:22.007Z,0.00
2022-07-30T02:12:21.978Z,0.00
2022-07-30T02:13:21.992Z,0.00
2022-07-30T02:14:22.092Z,0.00
2022-07-30T02:15:21.946Z,0.00
2022-07-30T02:16:21.980Z,0.00
2022-07-30T02:17:21.913Z,0.00
2022-07-30T02:18:23.815Z,0.00
2022-07-30T02:19:22.052Z,0.00
2022-07-30T02:20:25.165Z,0.00
2022-07-30T02:21:23.022Z,0.00
2022-07-30T02:22:21.884Z,0.00
2022-07-30T02:23:21.880Z,0.00
2022-07-30T02:24:21.878Z,0.00
2022-07-30T02:25:21.854Z,0.00
2022-07-30T02:26:21.826Z,0.00
2022-07-30T02:27:21.790Z,0.00
2022-07-30T02:28:21.793Z,0.00
2022-07-30T02:29:21.802Z,0.00
2022-07-30T02:30:21.835Z,0.00
2022-07-30T02:31:21.835Z,0.00
2022-07-30T02:32:21.760Z,0.00
2022-07-30T02:33:21.756Z,0.00
2022-07-30T02:34:21.800Z,0.00
2022-07-30T02:35:21.733Z,0.00
2022-07-30T02:36:21.755Z,0.00
2022-07-30T02:37:43.014Z,0.00
2022-07-30T02:38:22.781Z,0.00
2022-07-30T02:39:21.644Z,0.00
2022-07-30T02:40:21.700Z,0.00
2022-07-30T02:41:21.634Z,0.00
2022-07-30T02:42:22.328Z,0.00
2022-07-30T02:43:21.643Z,0.00
2022-07-30T02:44:21.630Z,0.00
2022-07-30T02:45:21.606Z,0.00
2022-07-30T02:46:21.683Z,0.00
2022-07-30T02:47:29.137Z,0.00
2022-07-30T02:48:35.138Z,0.00
2022-07-30T02:49:25.281Z,0.00
2022-07-30T02:50:21.561Z,0.00
2022-07-30T02:51:21.517Z,0.00
2022-07-30T02:52:21.526Z,0.00
2022-07-30T02:53:21.518Z,0.00
2022-07-30T02:54:21.501Z,0.00
2022-07-30T02:55:21.470Z,0.00
2022-07-30T02:56:21.483Z,0.00
2022-07-30T02:57:21.492Z,0.00
2022-07-30T02:58:21.467Z,0.00
2022-07-30T02:59:21.443Z,0.00
2022-07-30T03:00:21.482Z,0.00
2022-07-30T03:01:21.425Z,0.00
2022-07-30T03:02:28.994Z,0.00
2022-07-30T03:03:22.398Z,0.00
2022-07-30T03:04:21.382Z,0.00
2022-07-30T03:05:21.368Z,0.00
2022-07-30T03:06:21.358Z,0.00
2022-07-30T03:07:21.340Z,0.00
2022-07-30T03:08:21.347Z,0.00
2022-07-30T03:09:21.542Z,4.00
2022-07-30T03:10:21.333Z,4.00
2022-07-30T03:11:21.303Z,4.00
2022-07-30T03:12:21.289Z,0.00
2022-07-30T03:13:21.302Z,4.00
2022-07-30T03:14:21.272Z,4.00
2022-07-30T03:15:21.285Z,8.00
2022-07-30T03:16:21.348Z,4.00
2022-07-30T03:17:21.235Z,8.00
2022-07-30T03:18:21.237Z,8.00
2022-07-30T03:19:21.250Z,8.00
2022-07-30T03:20:21.209Z,12.00
2022-07-30T03:21:21.184Z,12.00
2022-07-30T03:22:21.196Z,16.00
2022-07-30T03:23:21.192Z,16.00
2022-07-30T03:24:21.168Z,16.00
2022-07-30T03:25:21.139Z,20.00
2022-07-30T03:26:21.142Z,24.00
2022-07-30T03:27:21.145Z,28.00
2022-07-30T03:28:21.137Z,28.00
2022-07-30T03:29:21.728Z,32.00
2022-07-30T03:30:21.105Z,36.00
2022-07-30T03:31:21.210Z,44.00
2022-07-30T03:32:21.097Z,48.00
2022-07-30T03:33:22.087Z,56.00
2022-07-30T03:34:21.064Z,60.00
2022-07-30T03:35:21.044Z,64.00
2022-07-30T03:36:21.071Z,76.00
2022-07-30T03:37:21.037Z,80.00
2022-07-30T03:38:21.018Z,88.00
2022-07-30T03:39:21.020Z,96.00
2022-07-30T03:40:21.056Z,100.00
2022-07-30T03:41:20.977Z,112.00
2022-07-30T03:42:20.978Z,116.00
2022-07-30T03:43:33.475Z,128.00
2022-07-30T03:44:21.948Z,132.00
2022-07-30T03:45:20.941Z,140.00
2022-07-30T03:46:20.971Z,148.00
2022-07-30T03:47:20.913Z,156.00
2022-07-30T03:48:21.606Z,164.00
2022-07-30T03:49:20.961Z,168.00
2022-07-30T03:50:20.911Z,176.00
2022-07-30T03:51:20.867Z,176.00
2022-07-30T03:52:20.874Z,180.00
2022-07-30T03:53:20.870Z,184.00
2022-07-30T03:54:20.861Z,188.00
2022-07-30T03:55:20.842Z,192.00
2022-07-30T03:56:20.854Z,200.00
2022-07-30T03:57:20.856Z,208.00
2022-07-30T03:58:20.794Z,212.00
2022-07-30T03:59:20.797Z,220.00
2022-07-30T04:00:20.773Z,220.00
2022-07-30T04:01:20.837Z,216.00
2022-07-30T04:02:20.778Z,216.00
2022-07-30T04:03:20.846Z,216.00
2022-07-30T04:04:20.758Z,212.00
2022-07-30T04:05:20.720Z,212.00
2022-07-30T04:06:20.729Z,216.00
2022-07-30T04:07:20.746Z,224.00
2022-07-30T04:08:20.978Z,228.00
2022-07-30T04:09:21.010Z,236.00
2022-07-30T04:10:21.072Z,240.00
2022-07-30T04:11:21.540Z,240.00
2022-07-30T04:12:21.900Z,240.00
2022-07-30T04:13:20.698Z,240.00
2022-07-30T04:14:20.633Z,240.00
2022-07-30T04:16:37.718Z,236.00
2022-07-30T04:16:39.803Z,236.00
2022-07-30T04:17:21.714Z,236.00
2022-07-30T04:18:20.568Z,236.00
2022-07-30T04:19:20.565Z,240.00
2022-07-30T04:20:20.555Z,244.00
2022-07-30T04:21:20.549Z,244.00
2022-07-30T04:22:20.542Z,252.00
2022-07-30T04:23:20.538Z,256.00
2022-07-30T04:24:20.561Z,256.00
2022-07-30T04:25:24.587Z,260.00
2022-07-30T04:26:20.511Z,264.00
2022-07-30T04:27:20.478Z,268.00
2022-07-30T04:28:20.469Z,268.00
2022-07-30T04:29:24.417Z,272.00
2022-07-30T04:30:20.442Z,280.00
2022-07-30T04:31:20.495Z,292.00
2022-07-30T04:32:20.473Z,300.00
2022-07-30T04:33:20.413Z,312.00
2022-07-30T04:34:20.429Z,328.00
2022-07-30T04:35:49.862Z,344.00
2022-07-30T04:36:21.411Z,364.00
2022-07-30T04:37:20.404Z,380.00
2022-07-30T04:38:20.394Z,396.00
2022-07-30T04:39:20.358Z,412.00
2022-07-30T04:40:20.342Z,424.00
2022-07-30T04:41:20.338Z,440.00
2022-07-30T04:42:20.404Z,456.00
2022-07-30T04:43:20.411Z,468.00
2022-07-30T04:44:20.324Z,488.00
2022-07-30T04:45:20.299Z,500.00
2022-07-30T04:46:20.421Z,516.00
2022-07-30T04:47:20.260Z,524.00
2022-07-30T04:48:20.270Z,540.00
2022-07-30T04:49:20.411Z,556.00
2022-07-30T04:50:20.244Z,572.00
2022-07-30T04:51:20.229Z,588.00
2022-07-30T04:52:20.226Z,604.00
2022-07-30T04:53:20.205Z,620.00
2022-07-30T04:54:20.187Z,636.00
2022-07-30T04:55:20.179Z,660.00
2022-07-30T04:56:20.164Z,676.00
2022-07-30T04:57:20.151Z,696.00
2022-07-30T04:58:20.168Z,720.00
2022-07-30T04:59:20.174Z,740.00
2022-07-30T05:00:20.141Z,760.00
2022-07-30T05:01:20.195Z,784.00
2022-07-30T05:02:20.183Z,804.00
2022-07-30T05:03:20.097Z,824.00
2022-07-30T05:04:20.088Z,852.00
2022-07-30T05:05:20.143Z,872.00
2022-07-30T05:06:20.077Z,892.00
2022-07-30T05:07:22.263Z,912.00
2022-07-30T05:08:20.043Z,932.00
2022-07-30T05:09:20.043Z,956.00
2022-07-30T05:10:20.044Z,976.00
2022-07-30T05:11:20.057Z,1000.00
2022-07-30T05:12:20.002Z,1028.00
2022-07-30T05:13:20.080Z,1056.00
2022-07-30T05:14:19.987Z,1088.00
2022-07-30T05:15:19.956Z,1120.00
2022-07-30T05:16:20.060Z,1160.00
2022-07-30T05:17:19.953Z,1204.00
2022-07-30T05:18:19.973Z,1256.00
2022-07-30T05:19:19.956Z,1312.00
2022-07-30T05:20:19.922Z,1368.00
2022-07-30T05:21:19.897Z,1432.00
2022-07-30T05:22:19.939Z,1504.00
2022-07-30T05:23:19.905Z,1580.00
2022-07-30T05:24:19.868Z,1652.00
2022-07-30T05:25:19.864Z,1716.00
2022-07-30T05:26:19.858Z,1768.00
2022-07-30T05:27:19.849Z,1816.00
2022-07-30T05:28:19.830Z,1856.00
2022-07-30T05:29:20.382Z,1892.00
2022-07-30T05:30:19.809Z,1932.00
2022-07-30T05:31:21.160Z,1980.00
2022-07-30T05:32:19.809Z,2032.00
2022-07-30T05:33:19.775Z,2088.00
2022-07-30T05:34:19.758Z,2148.00
2022-07-30T05:35:19.783Z,2212.00
2022-07-30T05:36:19.740Z,2276.00
2022-07-30T05:37:19.725Z,2340.00
2022-07-30T05:38:19.721Z,2404.00
2022-07-30T05:39:19.729Z,2472.00
2022-07-30T05:40:19.697Z,2548.00
2022-07-30T05:41:32.260Z,2624.00
2022-07-30T05:42:20.669Z,2692.00
2022-07-30T05:43:19.667Z,2760.00
2022-07-30T05:44:23.912Z,2820.00
2022-07-30T05:45:19.654Z,2868.00
2022-07-30T05:46:19.698Z,2900.00
2022-07-30T05:47:19.615Z,2908.00
2022-07-30T05:48:19.620Z,2908.00
2022-07-30T05:49:19.702Z,2908.00
2022-07-30T05:50:19.609Z,2912.00
2022-07-30T05:51:19.809Z,2932.00
2022-07-30T05:52:19.593Z,2976.00
2022-07-30T05:53:19.656Z,3036.00
2022-07-30T05:54:19.544Z,3104.00
2022-07-30T05:55:19.641Z,3176.00
2022-07-30T05:56:19.718Z,3248.00
2022-07-30T05:57:19.598Z,3304.00
2022-07-30T05:58:19.493Z,3344.00
2022-07-30T05:59:19.488Z,3372.00
2022-07-30T06:00:19.511Z,3400.00
2022-07-30T06:01:19.610Z,3408.00
2022-07-30T06:02:19.468Z,3448.00
2022-07-30T06:03:19.459Z,3516.00
2022-07-30T06:04:19.550Z,3596.00
2022-07-30T06:05:19.471Z,3688.00
2022-07-30T06:06:22.902Z,3764.00
2022-07-30T06:07:19.404Z,3832.00
2022-07-30T06:08:19.425Z,3892.00
2022-07-30T06:09:24.315Z,3936.00
2022-07-30T06:10:20.380Z,3968.00
2022-07-30T06:11:19.362Z,4008.00
2022-07-30T06:12:19.435Z,4064.00
2022-07-30T06:13:19.329Z,4144.00
2022-07-30T06:14:19.361Z,4228.00
2022-07-30T06:15:26.059Z,4312.00
2022-07-30T06:16:20.634Z,4400.00
2022-07-30T06:17:19.299Z,4504.00
2022-07-30T06:18:19.290Z,4616.00
2022-07-30T06:19:19.861Z,4720.00
2022-07-30T06:20:19.369Z,4824.00
2022-07-30T06:21:19.266Z,4936.00
2022-07-30T06:22:24.146Z,5052.00
2022-07-30T06:23:20.225Z,5168.00
2022-07-30T06:24:19.233Z,5296.00
2022-07-30T06:25:19.229Z,5404.00
2022-07-30T06:26:19.270Z,5560.00
2022-07-30T06:27:19.186Z,5620.00
2022-07-30T06:29:20.178Z,5672.00
2022-07-30T06:30:19.189Z,5744.00
2022-07-30T06:31:19.195Z,5820.00
2022-07-30T06:32:19.181Z,5904.00
2022-07-30T06:33:19.130Z,5992.00
2022-07-30T06:34:19.121Z,6104.00
2022-07-30T06:35:19.108Z,6204.00
2022-07-30T06:36:19.095Z,6288.00
2022-07-30T06:37:19.626Z,6372.00
2022-07-30T06:38:19.829Z,6456.00
2022-07-30T06:39:56.498Z,6560.00
2022-07-30T06:40:20.058Z,6720.00
2022-07-30T06:41:19.136Z,6932.00
2022-07-30T06:42:19.122Z,7176.00
2022-07-30T06:43:19.185Z,7396.00
2022-07-30T06:44:19.018Z,7648.00
2022-07-30T06:45:19.027Z,7944.00
2022-07-30T06:46:19.132Z,8088.00
2022-07-30T06:47:18.988Z,8160.00
2022-07-30T06:48:18.986Z,8280.00
2022-07-30T06:49:19.117Z,8292.00
2022-07-30T06:50:18.971Z,8340.00
2022-07-30T06:51:18.957Z,8408.00
2022-07-30T06:52:19.028Z,8468.00
2022-07-30T06:53:19.000Z,8572.00
2022-07-30T06:54:18.920Z,8856.00
2022-07-30T06:55:18.918Z,9080.00
2022-07-30T06:56:19.024Z,9484.00
2022-07-30T06:57:18.885Z,9472.00
2022-07-30T06:58:25.683Z,9648.00
2022-07-30T06:59:19.855Z,9228.00
2022-07-30T07:00:18.832Z,9016.00
2022-07-30T07:01:18.841Z,9068.00
2022-07-30T07:02:18.820Z,9396.00
2022-07-30T07:03:18.837Z,10312.00
2022-07-30T07:04:18.850Z,10364.00
2022-07-30T07:05:18.914Z,10344.00
2022-07-30T07:06:18.779Z,10076.00
2022-07-30T07:07:37.034Z,10192.00
2022-07-30T07:08:19.789Z,9888.00
2022-07-30T07:09:19.749Z,9348.00
2022-07-30T07:10:18.729Z,9700.00
2022-07-30T07:11:18.709Z,10116.00
2022-07-30T07:12:18.786Z,10332.00
2022-07-30T07:13:18.722Z,10432.00
2022-07-30T07:14:18.688Z,10528.00
2022-07-30T07:15:18.687Z,10536.00
2022-07-30T07:16:19.502Z,10552.00
2022-07-30T07:17:18.760Z,10640.00
2022-07-30T07:18:18.668Z,10652.00
2022-07-30T07:20:00.990Z,10524.00
2022-07-30T07:20:19.638Z,10308.00
2022-07-30T07:21:18.668Z,10544.00
2022-07-30T07:22:19.095Z,10664.00
2022-07-30T07:23:19.783Z,10732.00
2022-07-30T07:24:18.574Z,10764.00
2022-07-30T07:25:18.584Z,10760.00
2022-07-30T07:26:18.555Z,10772.00
2022-07-30T07:27:18.546Z,10744.00
2022-07-30T07:28:18.534Z,10704.00
2022-07-30T07:29:18.534Z,10596.00
2022-07-30T07:30:18.511Z,10524.00
2022-07-30T07:32:05.313Z,10468.00
2022-07-30T07:32:19.506Z,10392.00
2022-07-30T07:33:18.488Z,10384.00
2022-07-30T07:34:18.455Z,10384.00
2022-07-30T07:35:18.455Z,10444.00
2022-07-30T07:36:18.448Z,10464.00
2022-07-30T07:37:18.484Z,10392.00
2022-07-30T07:38:18.522Z,10256.00
2022-07-30T07:39:18.452Z,10076.00
2022-07-30T07:40:18.469Z,9876.00
2022-07-30T07:41:18.403Z,9728.00
2022-07-30T07:42:18.413Z,9664.00
2022-07-30T07:43:18.451Z,9640.00
2022-07-30T07:44:18.502Z,9620.00
2022-07-30T07:45:18.342Z,9580.00
2022-07-30T07:46:33.979Z,9572.00
2022-07-30T07:47:19.455Z,9644.00
2022-07-30T07:48:18.330Z,9776.00
2022-07-30T07:49:18.387Z,9944.00
2022-07-30T07:50:18.308Z,10092.00
2022-07-30T07:51:18.350Z,10220.00
2022-07-30T07:52:19.258Z,10348.00
2022-07-30T07:53:18.262Z,10496.00
2022-07-30T07:54:22.033Z,10620.00
2022-07-30T07:55:18.279Z,10456.00
2022-07-30T07:56:18.239Z,9616.00
2022-07-30T07:57:18.225Z,9452.00
2022-07-30T07:58:25.559Z,9688.00
2022-07-30T07:59:19.206Z,9920.00
2022-07-30T08:00:18.211Z,10000.00
2022-07-30T08:01:18.250Z,9844.00
2022-07-30T08:02:18.243Z,9360.00
2022-07-30T08:03:18.153Z,8908.00
2022-07-30T08:04:18.129Z,8588.00
2022-07-30T08:05:18.169Z,8412.00
2022-07-30T08:06:18.145Z,8380.00
2022-07-30T08:07:18.095Z,8460.00
2022-07-30T08:08:18.093Z,8596.00
2022-07-30T08:09:18.134Z,8768.00
2022-07-30T08:10:18.079Z,8904.00
2022-07-30T08:11:18.075Z,8936.00
2022-07-30T08:12:18.747Z,8936.00
2022-07-30T08:13:49.076Z,8868.00
2022-07-30T08:14:19.031Z,8776.00
2022-07-30T08:15:21.799Z,8692.00
2022-07-30T08:16:18.791Z,8660.00
2022-07-30T08:17:18.029Z,8688.00
2022-07-30T08:18:18.149Z,8796.00
2022-07-30T08:19:17.995Z,8844.00
2022-07-30T08:20:17.993Z,8756.00
2022-07-30T08:21:17.971Z,8684.00
2022-07-30T08:22:17.964Z,8588.00
2022-07-30T08:23:17.963Z,8476.00
2022-07-30T08:24:17.939Z,8224.00
2022-07-30T08:25:22.154Z,8008.00
2022-07-30T08:26:18.914Z,7828.00
2022-07-30T08:27:17.892Z,7680.00
2022-07-30T08:28:36.291Z,7612.00
2022-07-30T08:29:18.873Z,7568.00
2022-07-30T08:30:17.892Z,7728.00
2022-07-30T08:31:17.852Z,8040.00
2022-07-30T08:32:17.851Z,8184.00
2022-07-30T08:33:17.835Z,8168.00
2022-07-30T08:34:17.852Z,8244.00
2022-07-30T08:35:17.807Z,8396.00
2022-07-30T08:36:18.967Z,8612.00
2022-07-30T08:37:17.835Z,8824.00
2022-07-30T08:38:17.817Z,8932.00
2022-07-30T08:39:17.782Z,8984.00
2022-07-30T08:40:17.823Z,9032.00
2022-07-30T08:41:18.483Z,9100.00
2022-07-30T08:42:17.741Z,9216.00
2022-07-30T08:43:17.732Z,9456.00
2022-07-30T08:44:17.727Z,9824.00
2022-07-30T08:45:17.768Z,10200.00
2022-07-30T08:46:17.725Z,10604.00
2022-07-30T08:48:07.854Z,11024.00
2022-07-30T08:49:11.246Z,11244.00
2022-07-30T08:50:08.223Z,11640.00
2022-07-30T08:51:07.798Z,11464.00
2022-07-30T08:52:07.777Z,11420.00
2022-07-30T08:53:07.774Z,11568.00
2022-07-30T08:54:07.751Z,11652.00
2022-07-30T08:55:08.250Z,11796.00
2022-07-30T08:56:07.746Z,11856.00
2022-07-30T08:57:07.731Z,11784.00
2022-07-30T08:58:07.716Z,11936.00
2022-07-30T08:59:07.927Z,11988.00
2022-07-30T09:00:07.933Z,12000.00
2022-07-30T09:01:07.684Z,12056.00
2022-07-30T09:02:12.046Z,11992.00
2022-07-30T09:03:08.672Z,12008.00
2022-07-30T09:04:07.635Z,11984.00
2022-07-30T09:05:07.645Z,11976.00
2022-07-30T09:06:07.637Z,11984.00
2022-07-30T09:07:07.630Z,12036.00
2022-07-30T09:08:09.041Z,12072.00
2022-07-30T09:09:07.591Z,12116.00
2022-07-30T09:10:07.613Z,12152.00
2022-07-30T09:11:07.574Z,12224.00
2022-07-30T09:12:07.567Z,12280.00
2022-07-30T09:13:07.568Z,12404.00
2022-07-30T09:14:08.676Z,12496.00
2022-07-30T09:15:07.526Z,12496.00
2022-07-30T09:16:07.579Z,12680.00
2022-07-30T09:17:07.521Z,12892.00
2022-07-30T09:18:07.492Z,13088.00
2022-07-30T09:19:07.493Z,13272.00
2022-07-30T09:20:07.725Z,13404.00
2022-07-30T09:21:07.475Z,13404.00
2022-07-30T09:22:07.461Z,13380.00
2022-07-30T09:23:07.448Z,13092.00
2022-07-30T09:24:07.443Z,13056.00
2022-07-30T09:25:07.436Z,12984.00
2022-07-30T09:26:07.446Z,12812.00
2022-07-30T09:27:07.647Z,12712.00
2022-07-30T09:28:16.142Z,12620.00
2022-07-30T09:29:08.396Z,12616.00
2022-07-30T09:30:07.369Z,12540.00
2022-07-30T09:31:07.354Z,12668.00
2022-07-30T09:32:07.475Z,12668.00
2022-07-30T09:33:07.349Z,12652.00
2022-07-30T09:34:07.339Z,12624.00
2022-07-30T09:35:07.326Z,12596.00
2022-07-30T09:36:07.311Z,12712.00
2022-07-30T09:37:07.332Z,12620.00
2022-07-30T09:38:07.305Z,12608.00
2022-07-30T09:39:07.290Z,12556.00
2022-07-30T09:40:07.255Z,12544.00
2022-07-30T09:41:17.202Z,12608.00
2022-07-30T09:42:08.252Z,12592.00
2022-07-30T09:43:07.250Z,12548.00
2022-07-30T09:44:07.241Z,12676.00
2022-07-30T09:45:07.215Z,12772.00
2022-07-30T09:46:07.221Z,12856.00
2022-07-30T09:47:07.207Z,12920.00
2022-07-30T09:48:07.194Z,12972.00
2022-07-30T09:49:07.228Z,13036.00
2022-07-30T09:50:07.829Z,13076.00
2022-07-30T09:51:07.208Z,13112.00
2022-07-30T09:52:08.350Z,13196.00
2022-07-30T09:53:07.138Z,13272.00
2022-07-30T09:54:07.124Z,13360.00
2022-07-30T09:55:07.112Z,13424.00
2022-07-30T09:56:07.531Z,13492.00
2022-07-30T09:57:07.104Z,13544.00
2022-07-30T09:58:08.085Z,13608.00
2022-07-30T09:59:07.070Z,13668.00
2022-07-30T10:00:08.046Z,13692.00
2022-07-30T10:01:07.065Z,13796.00
2022-07-30T10:02:10.234Z,13964.00
2022-07-30T10:03:07.010Z,14104.00
2022-07-30T10:04:07.996Z,14428.00
2022-07-30T10:05:07.014Z,14700.00
2022-07-30T10:06:06.998Z,14900.00
2022-07-30T10:07:06.985Z,15076.00
2022-07-30T10:08:09.339Z,15236.00
2022-07-30T10:09:14.157Z,15400.00
2022-07-30T10:10:07.961Z,15540.00
2022-07-30T10:11:09.610Z,15808.00
2022-07-30T10:12:06.953Z,15872.00
2022-07-30T10:13:06.941Z,15872.00
2022-07-30T10:14:06.902Z,15968.00
2022-07-30T10:15:07.273Z,16032.00
2022-07-30T10:16:06.914Z,16032.00
2022-07-30T10:17:06.946Z,16032.00
2022-07-30T10:18:06.859Z,16096.00
2022-07-30T10:19:07.225Z,16320.00
2022-07-30T10:20:08.771Z,16448.00
2022-07-30T10:21:06.838Z,16576.00
2022-07-30T10:22:07.043Z,16608.00
2022-07-30T10:23:08.016Z,16896.00
2022-07-30T10:24:06.967Z,17056.00
2022-07-30T10:25:06.810Z,17344.00
2022-07-30T10:26:06.775Z,17344.00
2022-07-30T10:27:07.767Z,17056.00
2022-07-30T10:28:06.757Z,14200.00
2022-07-30T10:29:06.753Z,16160.00
2022-07-30T10:30:06.738Z,17856.00
2022-07-30T10:31:47.097Z,18208.00
2022-07-30T10:32:09.461Z,18464.00
2022-07-30T10:33:06.707Z,18688.00
2022-07-30T10:34:06.691Z,18848.00
2022-07-30T10:35:06.701Z,19072.00
2022-07-30T10:36:08.860Z,19104.00
2022-07-30T10:37:07.509Z,19232.00
2022-07-30T10:38:06.654Z,19264.00
2022-07-30T10:39:06.634Z,19200.00
2022-07-30T10:40:06.630Z,19296.00
2022-07-30T10:41:06.629Z,18944.00
2022-07-30T10:42:06.612Z,15364.00
2022-07-30T10:43:06.598Z,15448.00
2022-07-30T10:44:06.597Z,15612.00
2022-07-30T10:45:06.608Z,16512.00
2022-07-30T10:46:19.937Z,18528.00
2022-07-30T10:47:09.222Z,18368.00
2022-07-30T10:48:06.595Z,14352.00
2022-07-30T10:49:06.605Z,14872.00
2022-07-30T10:50:07.555Z,15084.00
2022-07-30T10:51:06.523Z,18720.00
2022-07-30T10:52:06.516Z,18848.00
2022-07-30T10:53:06.551Z,19168.00
2022-07-30T10:54:06.481Z,19264.00
2022-07-30T10:55:07.474Z,19296.00
2022-07-30T10:56:06.453Z,19296.00
2022-07-30T10:57:06.939Z,16124.00
2022-07-30T10:58:06.446Z,17120.00
2022-07-30T10:59:07.702Z,19392.00
2022-07-30T11:00:06.434Z,19296.00
2022-07-30T11:01:06.420Z,19488.00
2022-07-30T11:02:07.780Z,19680.00
2022-07-30T11:03:14.180Z,19904.00
2022-07-30T11:04:07.385Z,20352.00
2022-07-30T11:05:06.651Z,20608.00
2022-07-30T11:06:06.379Z,20672.00
2022-07-30T11:07:06.654Z,20608.00
2022-07-30T11:08:06.507Z,20512.00
2022-07-30T11:09:06.328Z,20640.00
2022-07-30T11:10:09.523Z,20800.00
2022-07-30T11:11:19.184Z,21024.00
2022-07-30T11:12:07.341Z,21216.00
2022-07-30T11:13:06.291Z,21408.00
2022-07-30T11:14:06.272Z,21536.00
2022-07-30T11:15:17.959Z,21664.00
2022-07-30T11:16:07.525Z,21856.00
2022-07-30T11:17:06.242Z,22176.00
2022-07-30T11:18:12.881Z,22688.00
2022-07-30T11:19:56.240Z,23328.00
2022-07-30T11:20:07.349Z,23680.00
2022-07-30T11:21:06.200Z,23808.00
2022-07-30T11:22:06.202Z,23840.00
2022-07-30T11:23:06.188Z,23872.00
2022-07-30T11:24:06.577Z,22528.00
2022-07-30T11:25:12.801Z,22784.00
2022-07-30T11:26:07.186Z,19968.00
2022-07-30T11:27:06.162Z,18336.00
2022-07-30T11:28:06.143Z,18400.00
2022-07-30T11:29:06.115Z,18720.00
2022-07-30T11:30:06.105Z,18880.00
2022-07-30T11:31:10.524Z,18528.00
2022-07-30T11:32:07.006Z,19104.00
2022-07-30T11:33:06.079Z,23936.00
2022-07-30T11:34:06.091Z,23968.00
2022-07-30T11:35:06.066Z,23872.00
2022-07-30T11:36:06.053Z,23904.00
2022-07-30T11:37:18.093Z,24032.00
2022-07-30T11:38:07.076Z,24704.00
2022-07-30T11:39:07.520Z,28320.00
2022-07-30T11:40:06.536Z,28736.00
2022-07-30T11:41:05.998Z,26240.00
2022-07-30T11:42:05.989Z,28576.00
2022-07-30T11:43:06.368Z,32256.00
2022-07-30T11:44:05.957Z,33120.00
2022-07-30T11:45:05.942Z,21056.00
2022-07-30T11:46:05.959Z,20032.00
2022-07-30T11:47:05.944Z,34880.00
2022-07-30T11:48:05.970Z,35296.00
2022-07-30T11:49:05.973Z,36384.00
2022-07-30T11:50:05.908Z,37440.00
2022-07-30T11:51:05.989Z,32192.00
2022-07-30T11:52:05.875Z,38048.00
2022-07-30T11:53:06.089Z,38016.00
2022-07-30T11:54:05.875Z,39136.00
2022-07-30T11:55:05.869Z,40608.00
2022-07-30T11:56:05.854Z,35008.00
2022-07-30T11:57:05.830Z,34976.00
2022-07-30T11:58:06.288Z,41856.00
2022-07-30T11:59:05.801Z,41760.00
2022-07-30T12:00:05.797Z,41984.00
2022-07-30T12:01:09.153Z,42016.00
2022-07-30T12:02:06.118Z,41984.00
2022-07-30T12:03:05.787Z,42688.00
2022-07-30T12:04:06.471Z,43360.00
2022-07-30T12:05:05.753Z,43840.00
2022-07-30T12:06:05.771Z,45760.00
2022-07-30T12:07:05.813Z,46592.00
2022-07-30T12:08:05.813Z,46656.00
2022-07-30T12:09:05.745Z,46016.00
2022-07-30T12:10:06.660Z,24512.00
2022-07-30T12:11:05.684Z,40512.00
2022-07-30T12:12:05.687Z,22752.00
2022-07-30T12:13:05.670Z,23552.00
2022-07-30T12:14:05.706Z,23168.00
2022-07-30T12:15:05.647Z,23072.00
2022-07-30T12:16:05.628Z,23360.00
2022-07-30T12:17:06.003Z,23968.00
2022-07-30T12:18:25.382Z,47360.00
2022-07-30T12:19:06.612Z,34176.00
2022-07-30T12:20:05.602Z,35680.00
2022-07-30T12:21:05.567Z,44544.00
2022-07-30T12:22:05.770Z,39488.00